sensor_id;sensor_type;location;lat;lon;timestamp;P1;durP1;ratioP1;P2;durP2;ratioP2
68097;SDS011;54886;47.036;15.466;2023-04-06T00:00:23;10.48;;;5.95;;
68097;SDS011;54886;47.036;15.466;2023-04-06T00:02:48;11.75;;;5.63;;
68097;SDS011;54886;47.036;15.466;2023-04-06T00:05:14;8.80;;;5.10;;
68097;SDS011;54886;47.036;15.466;2023-04-06T00:07:40;10.88;;;5.35;;
68097;SDS011;54886;47.036;15.466;2023-04-06T00:10:06;13.25;;;4.97;;
68097;SDS011;54886;47.036;15.466;2023-04-06T00:12:32;11.25;;;5.75;;
68097;SDS011;54886;47.036;15.466;2023-04-06T00:14:57;10.15;;;5.10;;
68097;SDS011;54886;47.036;15.466;2023-04-06T00:17:23;12.38;;;5.85;;
68097;SDS011;54886;47.036;15.466;2023-04-06T00:19:48;10.10;;;5.03;;
68097;SDS011;54886;47.036;15.466;2023-04-06T00:22:14;10.35;;;5.40;;
68097;SDS011;54886;47.036;15.466;2023-04-06T00:24:39;12.02;;;5.70;;
68097;SDS011;54886;47.036;15.466;2023-04-06T00:27:05;11.77;;;4.82;;
68097;SDS011;54886;47.036;15.466;2023-04-06T00:29:30;9.80;;;4.68;;
68097;SDS011;54886;47.036;15.466;2023-04-06T00:31:56;9.05;;;4.38;;
68097;SDS011;54886;47.036;15.466;2023-04-06T00:34:21;10.30;;;4.47;;
68097;SDS011;54886;47.036;15.466;2023-04-06T00:36:46;7.85;;;3.97;;
68097;SDS011;54886;47.036;15.466;2023-04-06T00:39:12;8.30;;;4.05;;
68097;SDS011;54886;47.036;15.466;2023-04-06T00:41:38;7.80;;;3.85;;
68097;SDS011;54886;47.036;15.466;2023-04-06T00:44:06;8.80;;;4.20;;
68097;SDS011;54886;47.036;15.466;2023-04-06T00:46:32;7.22;;;3.80;;
68097;SDS011;54886;47.036;15.466;2023-04-06T00:48:57;9.63;;;4.40;;
68097;SDS011;54886;47.036;15.466;2023-04-06T00:51:23;10.30;;;5.28;;
68097;SDS011;54886;47.036;15.466;2023-04-06T00:53:48;8.50;;;4.50;;
68097;SDS011;54886;47.036;15.466;2023-04-06T00:56:14;9.10;;;4.25;;
68097;SDS011;54886;47.036;15.466;2023-04-06T00:58:40;11.85;;;4.68;;
68097;SDS011;54886;47.036;15.466;2023-04-06T01:01:05;8.23;;;4.32;;
68097;SDS011;54886;47.036;15.466;2023-04-06T01:03:31;9.73;;;3.92;;
68097;SDS011;54886;47.036;15.466;2023-04-06T01:05:56;9.32;;;4.30;;
68097;SDS011;54886;47.036;15.466;2023-04-06T01:08:23;9.85;;;4.60;;
68097;SDS011;54886;47.036;15.466;2023-04-06T01:10:49;8.98;;;4.40;;
68097;SDS011;54886;47.036;15.466;2023-04-06T01:13:15;9.27;;;4.35;;
68097;SDS011;54886;47.036;15.466;2023-04-06T01:15:41;9.52;;;4.25;;
68097;SDS011;54886;47.036;15.466;2023-04-06T01:18:10;9.18;;;4.38;;
68097;SDS011;54886;47.036;15.466;2023-04-06T01:20:35;8.20;;;4.00;;
68097;SDS011;54886;47.036;15.466;2023-04-06T01:23:01;8.73;;;3.97;;
68097;SDS011;54886;47.036;15.466;2023-04-06T01:25:27;9.13;;;4.18;;
68097;SDS011;54886;47.036;15.466;2023-04-06T01:27:52;8.05;;;4.40;;
68097;SDS011;54886;47.036;15.466;2023-04-06T01:30:18;7.53;;;4.10;;
68097;SDS011;54886;47.036;15.466;2023-04-06T01:32:44;8.32;;;4.15;;
68097;SDS011;54886;47.036;15.466;2023-04-06T01:35:10;7.07;;;4.10;;
68097;SDS011;54886;47.036;15.466;2023-04-06T01:37:35;9.05;;;4.20;;
68097;SDS011;54886;47.036;15.466;2023-04-06T01:40:02;7.60;;;4.18;;
68097;SDS011;54886;47.036;15.466;2023-04-06T01:42:27;8.68;;;4.20;;
68097;SDS011;54886;47.036;15.466;2023-04-06T01:44:53;10.85;;;4.25;;
68097;SDS011;54886;47.036;15.466;2023-04-06T01:47:18;9.02;;;4.00;;
68097;SDS011;54886;47.036;15.466;2023-04-06T01:49:44;9.48;;;3.90;;
68097;SDS011;54886;47.036;15.466;2023-04-06T01:52:09;9.52;;;3.85;;
68097;SDS011;54886;47.036;15.466;2023-04-06T01:54:35;8.52;;;3.83;;
68097;SDS011;54886;47.036;15.466;2023-04-06T01:57:00;8.05;;;3.60;;
68097;SDS011;54886;47.036;15.466;2023-04-06T01:59:26;8.70;;;3.92;;
68097;SDS011;54886;47.036;15.466;2023-04-06T02:01:51;7.38;;;3.65;;
68097;SDS011;54886;47.036;15.466;2023-04-06T02:04:17;7.95;;;3.95;;
68097;SDS011;54886;47.036;15.466;2023-04-06T02:06:42;6.70;;;3.28;;
68097;SDS011;54886;47.036;15.466;2023-04-06T02:09:08;7.80;;;3.67;;
68097;SDS011;54886;47.036;15.466;2023-04-06T02:11:33;7.80;;;3.78;;
68097;SDS011;54886;47.036;15.466;2023-04-06T02:13:59;7.68;;;3.90;;
68097;SDS011;54886;47.036;15.466;2023-04-06T02:16:25;6.90;;;3.63;;
68097;SDS011;54886;47.036;15.466;2023-04-06T02:18:51;7.28;;;3.58;;
68097;SDS011;54886;47.036;15.466;2023-04-06T02:21:17;6.82;;;3.95;;
68097;SDS011;54886;47.036;15.466;2023-04-06T02:23:45;8.75;;;3.45;;
68097;SDS011;54886;47.036;15.466;2023-04-06T02:26:11;6.05;;;3.30;;
68097;SDS011;54886;47.036;15.466;2023-04-06T02:28:37;7.40;;;3.70;;
68097;SDS011;54886;47.036;15.466;2023-04-06T02:31:02;8.75;;;3.75;;
68097;SDS011;54886;47.036;15.466;2023-04-06T02:33:28;6.07;;;3.30;;
68097;SDS011;54886;47.036;15.466;2023-04-06T02:35:53;9.80;;;3.75;;
68097;SDS011;54886;47.036;15.466;2023-04-06T02:38:19;8.60;;;3.53;;
68097;SDS011;54886;47.036;15.466;2023-04-06T02:40:44;7.68;;;3.67;;
68097;SDS011;54886;47.036;15.466;2023-04-06T02:43:10;7.70;;;3.70;;
68097;SDS011;54886;47.036;15.466;2023-04-06T02:45:35;8.27;;;4.15;;
68097;SDS011;54886;47.036;15.466;2023-04-06T02:48:01;7.00;;;3.50;;
68097;SDS011;54886;47.036;15.466;2023-04-06T02:50:26;7.07;;;3.78;;
68097;SDS011;54886;47.036;15.466;2023-04-06T02:52:52;6.20;;;3.20;;
68097;SDS011;54886;47.036;15.466;2023-04-06T02:55:18;6.78;;;3.30;;
68097;SDS011;54886;47.036;15.466;2023-04-06T02:57:44;8.20;;;3.95;;
68097;SDS011;54886;47.036;15.466;2023-04-06T03:00:10;9.27;;;4.28;;
68097;SDS011;54886;47.036;15.466;2023-04-06T03:02:36;8.75;;;3.92;;
68097;SDS011;54886;47.036;15.466;2023-04-06T03:05:02;7.80;;;3.95;;
68097;SDS011;54886;47.036;15.466;2023-04-06T03:07:28;7.38;;;3.80;;
68097;SDS011;54886;47.036;15.466;2023-04-06T03:09:54;9.25;;;4.03;;
68097;SDS011;54886;47.036;15.466;2023-04-06T03:12:19;6.82;;;4.03;;
68097;SDS011;54886;47.036;15.466;2023-04-06T03:14:45;8.20;;;3.80;;
68097;SDS011;54886;47.036;15.466;2023-04-06T03:17:11;9.45;;;4.13;;
68097;SDS011;54886;47.036;15.466;2023-04-06T03:19:36;9.57;;;4.20;;
68097;SDS011;54886;47.036;15.466;2023-04-06T03:22:02;10.40;;;3.75;;
68097;SDS011;54886;47.036;15.466;2023-04-06T03:24:27;9.20;;;3.92;;
68097;SDS011;54886;47.036;15.466;2023-04-06T03:26:53;9.82;;;3.90;;
68097;SDS011;54886;47.036;15.466;2023-04-06T03:29:18;12.25;;;3.58;;
68097;SDS011;54886;47.036;15.466;2023-04-06T03:31:43;10.88;;;4.07;;
68097;SDS011;54886;47.036;15.466;2023-04-06T03:34:09;7.65;;;3.85;;
68097;SDS011;54886;47.036;15.466;2023-04-06T03:36:35;9.95;;;4.07;;
68097;SDS011;54886;47.036;15.466;2023-04-06T03:39:00;7.45;;;3.78;;
68097;SDS011;54886;47.036;15.466;2023-04-06T03:41:26;11.68;;;4.60;;
68097;SDS011;54886;47.036;15.466;2023-04-06T03:43:52;9.38;;;4.22;;
68097;SDS011;54886;47.036;15.466;2023-04-06T03:46:17;9.38;;;4.30;;
68097;SDS011;54886;47.036;15.466;2023-04-06T03:48:43;11.43;;;4.35;;
68097;SDS011;54886;47.036;15.466;2023-04-06T03:51:08;10.60;;;4.60;;
68097;SDS011;54886;47.036;15.466;2023-04-06T03:53:34;10.75;;;4.22;;
68097;SDS011;54886;47.036;15.466;2023-04-06T03:56:01;9.35;;;4.53;;
68097;SDS011;54886;47.036;15.466;2023-04-06T03:58:27;9.55;;;4.68;;
68097;SDS011;54886;47.036;15.466;2023-04-06T04:00:52;9.07;;;4.72;;
68097;SDS011;54886;47.036;15.466;2023-04-06T04:03:18;7.75;;;3.97;;
68097;SDS011;54886;47.036;15.466;2023-04-06T04:05:43;8.40;;;4.40;;
68097;SDS011;54886;47.036;15.466;2023-04-06T04:08:09;8.85;;;4.22;;
68097;SDS011;54886;47.036;15.466;2023-04-06T04:10:34;8.57;;;4.57;;
68097;SDS011;54886;47.036;15.466;2023-04-06T04:13:00;8.35;;;4.20;;
68097;SDS011;54886;47.036;15.466;2023-04-06T04:15:25;11.35;;;4.60;;
68097;SDS011;54886;47.036;15.466;2023-04-06T04:17:50;11.27;;;3.95;;
68097;SDS011;54886;47.036;15.466;2023-04-06T04:20:16;10.13;;;4.80;;
68097;SDS011;54886;47.036;15.466;2023-04-06T04:22:42;7.82;;;3.88;;
68097;SDS011;54886;47.036;15.466;2023-04-06T04:25:07;9.25;;;4.00;;
68097;SDS011;54886;47.036;15.466;2023-04-06T04:27:33;7.60;;;4.10;;
68097;SDS011;54886;47.036;15.466;2023-04-06T04:29:59;8.68;;;4.65;;
68097;SDS011;54886;47.036;15.466;2023-04-06T04:32:25;7.97;;;4.20;;
68097;SDS011;54886;47.036;15.466;2023-04-06T04:34:52;7.45;;;4.15;;
68097;SDS011;54886;47.036;15.466;2023-04-06T04:37:18;9.80;;;4.05;;
68097;SDS011;54886;47.036;15.466;2023-04-06T04:39:44;10.70;;;4.22;;
68097;SDS011;54886;47.036;15.466;2023-04-06T04:42:10;10.13;;;5.57;;
68097;SDS011;54886;47.036;15.466;2023-04-06T04:44:36;10.18;;;5.47;;
68097;SDS011;54886;47.036;15.466;2023-04-06T04:47:01;9.48;;;4.53;;
68097;SDS011;54886;47.036;15.466;2023-04-06T04:49:27;9.07;;;5.05;;
68097;SDS011;54886;47.036;15.466;2023-04-06T04:51:52;12.30;;;5.05;;
68097;SDS011;54886;47.036;15.466;2023-04-06T04:54:18;10.93;;;5.60;;
68097;SDS011;54886;47.036;15.466;2023-04-06T04:56:44;14.40;;;5.65;;
68097;SDS011;54886;47.036;15.466;2023-04-06T04:59:10;17.38;;;6.95;;
68097;SDS011;54886;47.036;15.466;2023-04-06T05:01:35;10.98;;;5.75;;
68097;SDS011;54886;47.036;15.466;2023-04-06T05:04:01;14.68;;;5.32;;
68097;SDS011;54886;47.036;15.466;2023-04-06T05:06:26;9.60;;;4.82;;
68097;SDS011;54886;47.036;15.466;2023-04-06T05:08:52;11.20;;;5.10;;
68097;SDS011;54886;47.036;15.466;2023-04-06T05:11:17;13.80;;;5.63;;
68097;SDS011;54886;47.036;15.466;2023-04-06T05:13:43;9.98;;;5.20;;
68097;SDS011;54886;47.036;15.466;2023-04-06T05:16:08;8.15;;;4.53;;
68097;SDS011;54886;47.036;15.466;2023-04-06T05:18:34;8.45;;;4.25;;
68097;SDS011;54886;47.036;15.466;2023-04-06T05:20:59;9.82;;;4.70;;
68097;SDS011;54886;47.036;15.466;2023-04-06T05:23:25;10.57;;;4.70;;
68097;SDS011;54886;47.036;15.466;2023-04-06T05:25:51;14.32;;;5.05;;
68097;SDS011;54886;47.036;15.466;2023-04-06T05:28:16;10.90;;;5.25;;
68097;SDS011;54886;47.036;15.466;2023-04-06T05:30:43;15.20;;;6.20;;
68097;SDS011;54886;47.036;15.466;2023-04-06T05:33:10;9.73;;;4.18;;
68097;SDS011;54886;47.036;15.466;2023-04-06T05:35:36;9.48;;;4.57;;
68097;SDS011;54886;47.036;15.466;2023-04-06T05:38:01;8.95;;;4.63;;
68097;SDS011;54886;47.036;15.466;2023-04-06T05:40:26;8.38;;;4.25;;
68097;SDS011;54886;47.036;15.466;2023-04-06T05:42:52;8.45;;;4.03;;
68097;SDS011;54886;47.036;15.466;2023-04-06T05:45:18;10.38;;;4.40;;
68097;SDS011;54886;47.036;15.466;2023-04-06T05:47:44;12.77;;;5.38;;
68097;SDS011;54886;47.036;15.466;2023-04-06T05:50:10;10.10;;;4.30;;
68097;SDS011;54886;47.036;15.466;2023-04-06T05:52:37;9.45;;;4.35;;
68097;SDS011;54886;47.036;15.466;2023-04-06T05:55:02;10.07;;;4.57;;
68097;SDS011;54886;47.036;15.466;2023-04-06T05:57:28;13.13;;;5.32;;
68097;SDS011;54886;47.036;15.466;2023-04-06T05:59:54;10.10;;;5.05;;
68097;SDS011;54886;47.036;15.466;2023-04-06T06:02:20;10.82;;;5.50;;
68097;SDS011;54886;47.036;15.466;2023-04-06T06:04:46;10.38;;;5.40;;
68097;SDS011;54886;47.036;15.466;2023-04-06T06:07:11;13.02;;;5.03;;
68097;SDS011;54886;47.036;15.466;2023-04-06T06:09:37;11.23;;;4.78;;
68097;SDS011;54886;47.036;15.466;2023-04-06T06:12:02;12.50;;;4.78;;
68097;SDS011;54886;47.036;15.466;2023-04-06T06:14:28;9.23;;;4.95;;
68097;SDS011;54886;47.036;15.466;2023-04-06T06:16:53;14.32;;;5.50;;
68097;SDS011;54886;47.036;15.466;2023-04-06T06:19:19;10.75;;;5.53;;
68097;SDS011;54886;47.036;15.466;2023-04-06T06:21:45;10.70;;;5.50;;
68097;SDS011;54886;47.036;15.466;2023-04-06T06:24:10;16.05;;;5.40;;
68097;SDS011;54886;47.036;15.466;2023-04-06T06:26:36;11.02;;;5.28;;
68097;SDS011;54886;47.036;15.466;2023-04-06T06:29:02;14.88;;;5.22;;
68097;SDS011;54886;47.036;15.466;2023-04-06T06:31:30;10.27;;;5.15;;
68097;SDS011;54886;47.036;15.466;2023-04-06T06:33:55;13.07;;;5.22;;
68097;SDS011;54886;47.036;15.466;2023-04-06T06:36:21;12.52;;;5.28;;
68097;SDS011;54886;47.036;15.466;2023-04-06T06:38:46;10.90;;;5.28;;
68097;SDS011;54886;47.036;15.466;2023-04-06T06:41:12;13.18;;;5.80;;
68097;SDS011;54886;47.036;15.466;2023-04-06T06:43:37;11.65;;;5.88;;
68097;SDS011;54886;47.036;15.466;2023-04-06T06:46:03;13.73;;;5.72;;
68097;SDS011;54886;47.036;15.466;2023-04-06T06:48:29;10.68;;;5.28;;
68097;SDS011;54886;47.036;15.466;2023-04-06T06:50:55;10.82;;;5.65;;
68097;SDS011;54886;47.036;15.466;2023-04-06T06:53:21;11.75;;;6.10;;
68097;SDS011;54886;47.036;15.466;2023-04-06T06:55:47;13.20;;;5.88;;
68097;SDS011;54886;47.036;15.466;2023-04-06T06:58:13;13.00;;;5.80;;
68097;SDS011;54886;47.036;15.466;2023-04-06T07:00:39;19.17;;;6.30;;
68097;SDS011;54886;47.036;15.466;2023-04-06T07:03:05;21.63;;;6.03;;
68097;SDS011;54886;47.036;15.466;2023-04-06T07:05:30;13.50;;;5.97;;
68097;SDS011;54886;47.036;15.466;2023-04-06T07:07:56;11.50;;;5.90;;
68097;SDS011;54886;47.036;15.466;2023-04-06T07:10:21;16.20;;;6.25;;
68097;SDS011;54886;47.036;15.466;2023-04-06T07:12:47;11.82;;;6.00;;
68097;SDS011;54886;47.036;15.466;2023-04-06T07:15:13;13.02;;;5.53;;
68097;SDS011;54886;47.036;15.466;2023-04-06T07:17:38;9.65;;;5.00;;
68097;SDS011;54886;47.036;15.466;2023-04-06T07:20:06;10.77;;;5.28;;
68097;SDS011;54886;47.036;15.466;2023-04-06T07:22:31;11.20;;;5.47;;
68097;SDS011;54886;47.036;15.466;2023-04-06T07:24:57;12.65;;;5.63;;
68097;SDS011;54886;47.036;15.466;2023-04-06T07:27:22;11.07;;;5.22;;
68097;SDS011;54886;47.036;15.466;2023-04-06T07:29:48;11.50;;;5.55;;
68097;SDS011;54886;47.036;15.466;2023-04-06T07:32:13;10.77;;;5.45;;
68097;SDS011;54886;47.036;15.466;2023-04-06T07:34:39;13.75;;;6.05;;
68097;SDS011;54886;47.036;15.466;2023-04-06T07:37:05;12.02;;;5.93;;
68097;SDS011;54886;47.036;15.466;2023-04-06T07:39:30;13.48;;;6.10;;
68097;SDS011;54886;47.036;15.466;2023-04-06T07:41:56;12.20;;;5.35;;
68097;SDS011;54886;47.036;15.466;2023-04-06T07:44:21;14.50;;;5.78;;
68097;SDS011;54886;47.036;15.466;2023-04-06T07:46:47;10.75;;;5.70;;
68097;SDS011;54886;47.036;15.466;2023-04-06T07:49:12;9.75;;;4.93;;
68097;SDS011;54886;47.036;15.466;2023-04-06T07:51:38;10.60;;;4.75;;
68097;SDS011;54886;47.036;15.466;2023-04-06T07:54:05;9.13;;;3.95;;
68097;SDS011;54886;47.036;15.466;2023-04-06T07:56:30;9.38;;;4.57;;
68097;SDS011;54886;47.036;15.466;2023-04-06T07:58:56;9.73;;;4.53;;
68097;SDS011;54886;47.036;15.466;2023-04-06T08:01:23;9.20;;;4.82;;
68097;SDS011;54886;47.036;15.466;2023-04-06T08:03:49;7.72;;;4.45;;
68097;SDS011;54886;47.036;15.466;2023-04-06T08:06:15;11.18;;;4.53;;
68097;SDS011;54886;47.036;15.466;2023-04-06T08:08:41;10.77;;;3.70;;
68097;SDS011;54886;47.036;15.466;2023-04-06T08:11:07;9.77;;;4.25;;
68097;SDS011;54886;47.036;15.466;2023-04-06T08:13:33;9.55;;;3.63;;
68097;SDS011;54886;47.036;15.466;2023-04-06T08:15:59;8.15;;;3.88;;
68097;SDS011;54886;47.036;15.466;2023-04-06T08:18:25;7.57;;;4.25;;
68097;SDS011;54886;47.036;15.466;2023-04-06T08:20:50;6.60;;;3.50;;
68097;SDS011;54886;47.036;15.466;2023-04-06T08:23:16;7.82;;;3.42;;
68097;SDS011;54886;47.036;15.466;2023-04-06T08:25:41;7.80;;;3.78;;
68097;SDS011;54886;47.036;15.466;2023-04-06T08:28:08;9.05;;;3.60;;
68097;SDS011;54886;47.036;15.466;2023-04-06T08:30:34;8.27;;;3.70;;
68097;SDS011;54886;47.036;15.466;2023-04-06T08:33:00;7.20;;;4.13;;
68097;SDS011;54886;47.036;15.466;2023-04-06T08:35:26;6.65;;;3.60;;
68097;SDS011;54886;47.036;15.466;2023-04-06T08:37:52;8.60;;;3.67;;
68097;SDS011;54886;47.036;15.466;2023-04-06T08:40:18;10.60;;;3.90;;
68097;SDS011;54886;47.036;15.466;2023-04-06T08:42:50;8.98;;;3.70;;
68097;SDS011;54886;47.036;15.466;2023-04-06T08:45:19;7.88;;;3.85;;
68097;SDS011;54886;47.036;15.466;2023-04-06T08:47:46;8.13;;;3.65;;
68097;SDS011;54886;47.036;15.466;2023-04-06T08:50:14;7.95;;;3.60;;
68097;SDS011;54886;47.036;15.466;2023-04-06T08:52:42;5.90;;;3.30;;
68097;SDS011;54886;47.036;15.466;2023-04-06T08:55:09;6.45;;;3.15;;
68097;SDS011;54886;47.036;15.466;2023-04-06T08:57:35;6.70;;;3.47;;
68097;SDS011;54886;47.036;15.466;2023-04-06T09:00:01;7.93;;;3.25;;
68097;SDS011;54886;47.036;15.466;2023-04-06T09:02:27;5.65;;;3.28;;
68097;SDS011;54886;47.036;15.466;2023-04-06T09:04:53;6.65;;;3.40;;
68097;SDS011;54886;47.036;15.466;2023-04-06T09:07:19;6.47;;;2.88;;
68097;SDS011;54886;47.036;15.466;2023-04-06T09:09:46;6.15;;;3.20;;
68097;SDS011;54886;47.036;15.466;2023-04-06T09:12:26;6.93;;;3.38;;
68097;SDS011;54886;47.036;15.466;2023-04-06T09:14:53;8.55;;;3.65;;
68097;SDS011;54886;47.036;15.466;2023-04-06T09:17:20;8.32;;;3.40;;
68097;SDS011;54886;47.036;15.466;2023-04-06T09:19:57;6.70;;;3.08;;
68097;SDS011;54886;47.036;15.466;2023-04-06T09:22:23;7.30;;;3.60;;
68097;SDS011;54886;47.036;15.466;2023-04-06T09:24:53;4.63;;;2.80;;
68097;SDS011;54886;47.036;15.466;2023-04-06T09:27:31;7.05;;;2.85;;
68097;SDS011;54886;47.036;15.466;2023-04-06T09:30:16;8.13;;;3.08;;
68097;SDS011;54886;47.036;15.466;2023-04-06T09:32:49;6.50;;;3.00;;
68097;SDS011;54886;47.036;15.466;2023-04-06T09:35:15;5.05;;;2.70;;
68097;SDS011;54886;47.036;15.466;2023-04-06T09:37:44;7.43;;;3.00;;
68097;SDS011;54886;47.036;15.466;2023-04-06T09:40:10;6.00;;;3.08;;
68097;SDS011;54886;47.036;15.466;2023-04-06T09:42:36;5.07;;;2.72;;
68097;SDS011;54886;47.036;15.466;2023-04-06T09:45:02;6.03;;;3.00;;
68097;SDS011;54886;47.036;15.466;2023-04-06T09:47:28;5.30;;;2.75;;
68097;SDS011;54886;47.036;15.466;2023-04-06T09:49:56;7.50;;;3.35;;
68097;SDS011;54886;47.036;15.466;2023-04-06T09:52:26;7.20;;;3.03;;
68097;SDS011;54886;47.036;15.466;2023-04-06T09:54:59;6.40;;;2.72;;
68097;SDS011;54886;47.036;15.466;2023-04-06T09:57:30;4.50;;;2.40;;
68097;SDS011;54886;47.036;15.466;2023-04-06T10:02:39;6.05;;;2.90;;
68097;SDS011;54886;47.036;15.466;2023-04-06T10:07:53;6.60;;;2.80;;
68097;SDS011;54886;47.036;15.466;2023-04-06T10:10:21;4.47;;;2.45;;
68097;SDS011;54886;47.036;15.466;2023-04-06T10:12:47;4.57;;;2.53;;
68097;SDS011;54886;47.036;15.466;2023-04-06T10:15:14;5.40;;;2.50;;
68097;SDS011;54886;47.036;15.466;2023-04-06T10:17:40;5.13;;;2.70;;
68097;SDS011;54886;47.036;15.466;2023-04-06T10:20:07;4.68;;;2.60;;
68097;SDS011;54886;47.036;15.466;2023-04-06T10:22:55;6.05;;;2.42;;
68097;SDS011;54886;47.036;15.466;2023-04-06T10:25:30;4.32;;;2.45;;
68097;SDS011;54886;47.036;15.466;2023-04-06T10:28:00;3.50;;;2.28;;
68097;SDS011;54886;47.036;15.466;2023-04-06T10:30:33;7.07;;;3.42;;
68097;SDS011;54886;47.036;15.466;2023-04-06T10:33:00;5.45;;;2.90;;
68097;SDS011;54886;47.036;15.466;2023-04-06T10:35:36;5.13;;;2.65;;
68097;SDS011;54886;47.036;15.466;2023-04-06T10:38:03;4.05;;;2.60;;
68097;SDS011;54886;47.036;15.466;2023-04-06T10:40:30;5.65;;;2.50;;
68097;SDS011;54886;47.036;15.466;2023-04-06T10:43:06;6.45;;;2.50;;
68097;SDS011;54886;47.036;15.466;2023-04-06T10:45:55;4.03;;;2.40;;
68097;SDS011;54886;47.036;15.466;2023-04-06T10:48:22;4.88;;;2.72;;
68097;SDS011;54886;47.036;15.466;2023-04-06T10:50:49;4.03;;;2.70;;
68097;SDS011;54886;47.036;15.466;2023-04-06T10:55:49;3.95;;;2.38;;
68097;SDS011;54886;47.036;15.466;2023-04-06T10:58:15;5.82;;;2.50;;
68097;SDS011;54886;47.036;15.466;2023-04-06T11:00:44;4.25;;;2.28;;
68097;SDS011;54886;47.036;15.466;2023-04-06T11:03:10;2.80;;;2.05;;
68097;SDS011;54886;47.036;15.466;2023-04-06T11:05:36;4.35;;;2.42;;
68097;SDS011;54886;47.036;15.466;2023-04-06T11:08:01;3.75;;;2.00;;
68097;SDS011;54886;47.036;15.466;2023-04-06T11:10:27;7.82;;;2.28;;
68097;SDS011;54886;47.036;15.466;2023-04-06T11:12:53;4.45;;;2.40;;
68097;SDS011;54886;47.036;15.466;2023-04-06T11:15:19;2.67;;;2.10;;
68097;SDS011;54886;47.036;15.466;2023-04-06T11:17:45;3.78;;;2.30;;
68097;SDS011;54886;47.036;15.466;2023-04-06T11:20:11;3.85;;;2.20;;
68097;SDS011;54886;47.036;15.466;2023-04-06T11:22:47;3.45;;;1.80;;
68097;SDS011;54886;47.036;15.466;2023-04-06T11:25:13;5.85;;;2.30;;
68097;SDS011;54886;47.036;15.466;2023-04-06T11:27:39;4.07;;;2.00;;
68097;SDS011;54886;47.036;15.466;2023-04-06T11:30:05;3.10;;;1.90;;
68097;SDS011;54886;47.036;15.466;2023-04-06T11:32:44;3.70;;;2.20;;
68097;SDS011;54886;47.036;15.466;2023-04-06T11:35:11;4.80;;;2.30;;
68097;SDS011;54886;47.036;15.466;2023-04-06T11:37:44;4.32;;;2.00;;
68097;SDS011;54886;47.036;15.466;2023-04-06T11:40:10;5.93;;;2.05;;
68097;SDS011;54886;47.036;15.466;2023-04-06T11:42:35;3.05;;;1.98;;
68097;SDS011;54886;47.036;15.466;2023-04-06T11:45:01;2.50;;;1.98;;
68097;SDS011;54886;47.036;15.466;2023-04-06T11:47:27;2.00;;;1.80;;
68097;SDS011;54886;47.036;15.466;2023-04-06T11:50:07;3.72;;;2.00;;
68097;SDS011;54886;47.036;15.466;2023-04-06T11:52:34;3.90;;;2.10;;
68097;SDS011;54886;47.036;15.466;2023-04-06T11:55:09;3.53;;;1.90;;
68097;SDS011;54886;47.036;15.466;2023-04-06T11:57:40;4.68;;;2.00;;
68097;SDS011;54886;47.036;15.466;2023-04-06T12:00:06;4.80;;;1.70;;
68097;SDS011;54886;47.036;15.466;2023-04-06T12:02:34;3.20;;;1.77;;
68097;SDS011;54886;47.036;15.466;2023-04-06T12:05:01;3.33;;;1.80;;
68097;SDS011;54886;47.036;15.466;2023-04-06T12:07:26;2.47;;;1.80;;
68097;SDS011;54886;47.036;15.466;2023-04-06T12:09:53;2.72;;;1.70;;
68097;SDS011;54886;47.036;15.466;2023-04-06T12:12:18;4.00;;;1.90;;
68097;SDS011;54886;47.036;15.466;2023-04-06T12:14:44;5.63;;;1.90;;
68097;SDS011;54886;47.036;15.466;2023-04-06T12:17:09;5.22;;;2.03;;
68097;SDS011;54886;47.036;15.466;2023-04-06T12:19:35;3.00;;;1.95;;
68097;SDS011;54886;47.036;15.466;2023-04-06T12:22:00;2.75;;;1.65;;
68097;SDS011;54886;47.036;15.466;2023-04-06T12:24:26;3.40;;;1.88;;
68097;SDS011;54886;47.036;15.466;2023-04-06T12:26:52;4.05;;;1.98;;
68097;SDS011;54886;47.036;15.466;2023-04-06T12:29:18;4.75;;;1.83;;
68097;SDS011;54886;47.036;15.466;2023-04-06T12:31:43;2.75;;;1.85;;
68097;SDS011;54886;47.036;15.466;2023-04-06T12:34:10;3.83;;;2.00;;
68097;SDS011;54886;47.036;15.466;2023-04-06T12:36:36;3.65;;;1.75;;
68097;SDS011;54886;47.036;15.466;2023-04-06T12:39:02;3.50;;;1.80;;
68097;SDS011;54886;47.036;15.466;2023-04-06T12:41:28;2.97;;;1.80;;
68097;SDS011;54886;47.036;15.466;2023-04-06T12:43:54;3.72;;;1.90;;
68097;SDS011;54886;47.036;15.466;2023-04-06T12:46:20;5.85;;;1.85;;
68097;SDS011;54886;47.036;15.466;2023-04-06T12:48:47;3.30;;;1.70;;
68097;SDS011;54886;47.036;15.466;2023-04-06T12:51:12;2.30;;;1.73;;
68097;SDS011;54886;47.036;15.466;2023-04-06T12:53:38;5.32;;;1.80;;
68097;SDS011;54886;47.036;15.466;2023-04-06T12:56:10;1.70;;;1.60;;
68097;SDS011;54886;47.036;15.466;2023-04-06T12:58:40;3.88;;;1.90;;
68097;SDS011;54886;47.036;15.466;2023-04-06T13:01:06;4.00;;;1.60;;
68097;SDS011;54886;47.036;15.466;2023-04-06T13:03:33;4.45;;;1.70;;
68097;SDS011;54886;47.036;15.466;2023-04-06T13:05:59;2.90;;;1.70;;
68097;SDS011;54886;47.036;15.466;2023-04-06T13:08:26;3.00;;;1.83;;
68097;SDS011;54886;47.036;15.466;2023-04-06T13:10:52;3.10;;;1.50;;
68097;SDS011;54886;47.036;15.466;2023-04-06T13:13:26;4.10;;;1.73;;
68097;SDS011;54886;47.036;15.466;2023-04-06T13:15:53;2.65;;;1.75;;
68097;SDS011;54886;47.036;15.466;2023-04-06T13:18:20;2.70;;;1.60;;
68097;SDS011;54886;47.036;15.466;2023-04-06T13:20:46;2.90;;;1.70;;
68097;SDS011;54886;47.036;15.466;2023-04-06T13:23:12;6.88;;;1.73;;
68097;SDS011;54886;47.036;15.466;2023-04-06T13:25:38;2.25;;;1.77;;
68097;SDS011;54886;47.036;15.466;2023-04-06T13:28:04;4.60;;;2.00;;
68097;SDS011;54886;47.036;15.466;2023-04-06T13:30:29;3.00;;;1.80;;
68097;SDS011;54886;47.036;15.466;2023-04-06T13:32:55;4.15;;;1.90;;
68097;SDS011;54886;47.036;15.466;2023-04-06T13:35:21;3.35;;;1.60;;
68097;SDS011;54886;47.036;15.466;2023-04-06T13:37:46;3.17;;;1.50;;
68097;SDS011;54886;47.036;15.466;2023-04-06T13:40:13;2.75;;;1.75;;
68097;SDS011;54886;47.036;15.466;2023-04-06T13:42:38;3.83;;;1.70;;
68097;SDS011;54886;47.036;15.466;2023-04-06T13:45:05;4.07;;;2.10;;
68097;SDS011;54886;47.036;15.466;2023-04-06T13:47:31;4.05;;;1.73;;
68097;SDS011;54886;47.036;15.466;2023-04-06T13:49:57;3.65;;;1.70;;
68097;SDS011;54886;47.036;15.466;2023-04-06T13:52:23;2.17;;;1.60;;
68097;SDS011;54886;47.036;15.466;2023-04-06T13:54:49;2.20;;;1.77;;
68097;SDS011;54886;47.036;15.466;2023-04-06T13:57:15;3.65;;;1.70;;
68097;SDS011;54886;47.036;15.466;2023-04-06T13:59:40;3.83;;;1.80;;
68097;SDS011;54886;47.036;15.466;2023-04-06T14:02:07;3.17;;;1.73;;
68097;SDS011;54886;47.036;15.466;2023-04-06T14:04:33;2.45;;;1.60;;
68097;SDS011;54886;47.036;15.466;2023-04-06T14:06:59;3.88;;;1.70;;
68097;SDS011;54886;47.036;15.466;2023-04-06T14:09:25;4.28;;;1.90;;
68097;SDS011;54886;47.036;15.466;2023-04-06T14:11:51;4.85;;;1.80;;
68097;SDS011;54886;47.036;15.466;2023-04-06T14:14:17;8.00;;;3.50;;
68097;SDS011;54886;47.036;15.466;2023-04-06T14:16:43;5.90;;;2.92;;
68097;SDS011;54886;47.036;15.466;2023-04-06T14:19:09;4.05;;;2.03;;
68097;SDS011;54886;47.036;15.466;2023-04-06T14:21:37;5.18;;;2.78;;
68097;SDS011;54886;47.036;15.466;2023-04-06T14:24:04;3.33;;;1.90;;
68097;SDS011;54886;47.036;15.466;2023-04-06T14:26:30;6.75;;;1.90;;
68097;SDS011;54886;47.036;15.466;2023-04-06T14:28:57;4.65;;;2.80;;
68097;SDS011;54886;47.036;15.466;2023-04-06T14:31:23;3.22;;;1.77;;
68097;SDS011;54886;47.036;15.466;2023-04-06T14:33:48;2.80;;;1.70;;